createdAt,value
2022-08-07T00:02:37.482Z,17.31
2022-08-07T00:04:58.276Z,17.38
2022-08-07T00:07:27.332Z,17.25
2022-08-07T00:10:04.853Z,17.24
2022-08-07T00:12:57.621Z,17.16
2022-08-07T00:15:36.101Z,17.34
2022-08-07T00:18:05.580Z,17.34
2022-08-07T00:20:34.167Z,17.22
2022-08-07T00:23:01.019Z,17.17
2022-08-07T00:25:27.554Z,17.15
2022-08-07T00:28:04.127Z,17.00
2022-08-07T00:30:31.515Z,17.17
2022-08-07T00:33:00.296Z,17.15
2022-08-07T00:35:29.642Z,17.09
2022-08-07T00:37:57.277Z,17.01
2022-08-07T00:40:36.205Z,17.02
2022-08-07T00:43:03.315Z,16.98
2022-08-07T00:45:36.437Z,16.95
2022-08-07T00:48:08.158Z,17.14
2022-08-07T00:50:43.685Z,16.92
2022-08-07T00:53:17.511Z,16.79
2022-08-07T00:56:02.952Z,16.80
2022-08-07T00:58:30.971Z,16.83
2022-08-07T01:00:58.310Z,16.90
2022-08-07T01:03:56.903Z,16.81
2022-08-07T01:06:12.328Z,16.85
2022-08-07T01:08:43.154Z,16.71
2022-08-07T01:12:23.538Z,16.64
2022-08-07T01:14:04.988Z,16.65
2022-08-07T01:16:31.842Z,16.66
2022-08-07T01:18:58.495Z,16.63
2022-08-07T01:21:26.057Z,16.57
2022-08-07T01:23:54.997Z,16.67
2022-08-07T01:26:22.744Z,16.57
2022-08-07T01:28:53.852Z,16.53
2022-08-07T01:31:27.691Z,16.51
2022-08-07T01:34:07.264Z,16.54
2022-08-07T01:36:40.415Z,16.49
2022-08-07T01:39:09.914Z,16.48
2022-08-07T01:41:38.848Z,16.42
2022-08-07T01:44:07.688Z,16.41
2022-08-07T01:46:34.600Z,16.46
2022-08-07T01:49:02.423Z,16.53
2022-08-07T01:52:03.553Z,16.44
2022-08-07T01:54:32.882Z,16.41
2022-08-07T01:57:30.844Z,16.32
2022-08-07T02:00:13.285Z,16.33
2022-08-07T02:03:19.177Z,16.25
2022-08-07T02:05:59.412Z,16.38
2022-08-07T02:08:28.220Z,16.27
2022-08-07T02:10:59.153Z,16.25
2022-08-07T02:13:56.820Z,16.26
2022-08-07T02:16:19.791Z,16.16
2022-08-07T02:18:49.208Z,16.25
2022-08-07T02:21:19.634Z,16.20
2022-08-07T02:23:46.509Z,16.31
2022-08-07T02:26:32.326Z,16.29
2022-08-07T02:29:02.867Z,16.19
2022-08-07T02:31:30.892Z,16.15
2022-08-07T02:34:02.871Z,16.07
2022-08-07T02:36:33.719Z,16.17
2022-08-07T02:39:09.491Z,16.12
2022-08-07T02:41:50.530Z,16.12
2022-08-07T02:44:21.385Z,16.03
2022-08-07T02:46:52.670Z,16.06
2022-08-07T02:49:55.715Z,16.04
2022-08-07T02:52:09.827Z,16.02
2022-08-07T02:54:41.903Z,15.96
2022-08-07T02:57:13.416Z,15.98
2022-08-07T02:59:45.487Z,15.92
2022-08-07T03:02:22.465Z,16.00
2022-08-07T03:04:49.826Z,15.95
2022-08-07T03:07:17.176Z,15.95
2022-08-07T03:09:51.987Z,15.84
2022-08-07T03:12:22.454Z,15.96
2022-08-07T03:14:57.198Z,15.82
2022-08-07T03:17:29.511Z,15.84
2022-08-07T03:20:03.207Z,15.83
2022-08-07T03:22:30.509Z,16.01
2022-08-07T03:24:59.779Z,15.69
2022-08-07T03:27:30.399Z,15.56
2022-08-07T03:30:15.032Z,15.65
2022-08-07T03:32:57.059Z,15.58
2022-08-07T03:35:27.831Z,15.62
2022-08-07T03:38:13.323Z,15.62
2022-08-07T03:40:44.172Z,15.56
2022-08-07T03:43:14.602Z,15.42
2022-08-07T03:45:43.670Z,15.39
2022-08-07T03:48:14.811Z,15.55
2022-08-07T03:50:43.207Z,15.46
2022-08-07T03:53:49.929Z,15.49
2022-08-07T03:56:10.793Z,15.49
2022-08-07T03:59:08.992Z,15.56
2022-08-07T04:01:30.022Z,15.52
2022-08-07T04:03:59.073Z,15.31
2022-08-07T04:06:38.159Z,15.46
2022-08-07T04:09:06.187Z,15.39
2022-08-07T04:12:20.914Z,15.28
2022-08-07T04:14:38.624Z,15.38
2022-08-07T04:17:20.321Z,15.31
2022-08-07T04:19:51.944Z,15.35
2022-08-07T04:22:29.253Z,15.42
2022-08-07T04:24:58.142Z,15.30
2022-08-07T04:27:26.677Z,15.23
2022-08-07T04:30:02.361Z,15.20
2022-08-07T04:32:34.075Z,15.27
2022-08-07T04:35:05.693Z,15.30
2022-08-07T04:38:00.987Z,15.35
2022-08-07T04:40:20.302Z,15.28
2022-08-07T04:42:52.360Z,15.24
2022-08-07T04:45:44.522Z,15.20
2022-08-07T04:48:12.868Z,15.30
2022-08-07T04:50:52.864Z,15.27
2022-08-07T04:54:05.251Z,15.43
2022-08-07T04:58:12.437Z,15.38
2022-08-07T05:00:12.779Z,15.44
2022-08-07T05:03:00.691Z,15.43
2022-08-07T05:05:52.128Z,15.50
2022-08-07T05:08:59.046Z,15.48
2022-08-07T05:11:24.267Z,15.58
2022-08-07T05:14:55.369Z,15.62
2022-08-07T05:16:52.712Z,15.67
2022-08-07T05:19:25.772Z,15.77
2022-08-07T05:22:04.561Z,15.87
2022-08-07T05:24:39.547Z,15.99
2022-08-07T05:28:01.877Z,15.95
2022-08-07T05:29:56.788Z,16.04
2022-08-07T05:32:26.308Z,16.12
2022-08-07T05:34:54.328Z,16.20
2022-08-07T05:37:25.403Z,16.28
2022-08-07T05:40:04.981Z,16.36
2022-08-07T05:42:36.911Z,16.48
2022-08-07T05:45:26.380Z,16.65
2022-08-07T05:48:02.692Z,16.72
2022-08-07T05:50:31.536Z,16.88
2022-08-07T05:52:57.945Z,17.00
2022-08-07T05:55:25.412Z,16.99
2022-08-07T05:58:12.523Z,17.11
2022-08-07T06:00:40.871Z,17.26
2022-08-07T06:03:14.238Z,17.37
2022-08-07T06:05:49.117Z,17.42
2022-08-07T06:08:31.407Z,17.52
2022-08-07T06:10:59.635Z,17.60
2022-08-07T06:14:11.921Z,17.67
2022-08-07T06:16:17.984Z,17.89
2022-08-07T06:18:51.472Z,17.86
2022-08-07T06:22:14.979Z,17.95
2022-08-07T06:24:46.122Z,18.23
2022-08-07T06:26:55.316Z,18.41
2022-08-07T06:29:27.162Z,18.32
2022-08-07T06:31:55.552Z,18.37
2022-08-07T06:34:29.557Z,18.49
2022-08-07T06:36:56.243Z,18.47
2022-08-07T06:40:16.702Z,18.60
2022-08-07T06:42:16.149Z,18.70
2022-08-07T06:44:45.812Z,18.93
2022-08-07T06:47:17.809Z,18.97
2022-08-07T06:49:52.099Z,19.00
2022-08-07T06:52:31.354Z,19.25
2022-08-07T06:55:34.503Z,19.15
2022-08-07T06:57:57.468Z,19.55
2022-08-07T07:00:27.887Z,19.42
2022-08-07T07:06:04.026Z,19.56
2022-08-07T07:08:33.281Z,19.62
2022-08-07T07:11:01.564Z,19.63
2022-08-07T07:13:58.153Z,19.92
2022-08-07T07:16:33.993Z,19.86
2022-08-07T07:19:37.312Z,19.98
2022-08-07T07:22:05.490Z,19.99
2022-08-07T07:24:42.967Z,20.23
2022-08-07T07:27:27.382Z,20.40
2022-08-07T07:30:09.044Z,20.60
2022-08-07T07:32:39.139Z,20.68
2022-08-07T07:35:10.107Z,20.60
2022-08-07T07:37:47.238Z,20.76
2022-08-07T07:40:18.324Z,20.78
2022-08-07T07:42:47.043Z,20.81
2022-08-07T07:46:35.527Z,21.19
2022-08-07T07:48:11.243Z,21.25
2022-08-07T07:50:40.101Z,21.26
2022-08-07T07:53:13.611Z,21.33
2022-08-07T07:55:57.806Z,21.35
2022-08-07T07:58:40.327Z,21.48
2022-08-07T08:02:01.635Z,21.58
2022-08-07T08:04:09.411Z,21.78
2022-08-07T08:06:39.464Z,21.64
2022-08-07T08:09:08.114Z,21.59
2022-08-07T08:12:00.078Z,21.75
2022-08-07T08:14:26.409Z,21.99
2022-08-07T08:16:56.552Z,22.10
2022-08-07T08:20:22.157Z,22.40
2022-08-07T08:22:55.758Z,22.60
2022-08-07T08:25:42.997Z,22.44
2022-08-07T08:28:24.018Z,22.53
2022-08-07T08:31:14.655Z,22.96
2022-08-07T08:33:49.467Z,23.11
2022-08-07T08:36:25.670Z,22.74
2022-08-07T08:38:59.753Z,22.82
2022-08-07T08:41:46.109Z,23.15
2022-08-07T08:44:36.241Z,23.05
2022-08-07T08:47:32.326Z,23.55
2022-08-07T08:50:39.099Z,23.63
2022-08-07T08:53:19.190Z,23.88
2022-08-07T08:56:02.749Z,23.61
2022-08-07T08:58:30.484Z,23.98
2022-08-07T09:01:14.579Z,23.63
2022-08-07T09:03:52.765Z,23.78
2022-08-07T09:06:36.689Z,24.02
2022-08-07T09:09:21.003Z,24.37
2022-08-07T09:12:31.153Z,24.64
2022-08-07T09:16:22.556Z,24.16
2022-08-07T09:18:23.610Z,24.45
2022-08-07T09:21:02.583Z,24.68
2022-08-07T09:24:33.686Z,24.53
2022-08-07T09:26:51.105Z,24.47
2022-08-07T09:30:03.548Z,24.86
2022-08-07T09:32:28.973Z,25.20
2022-08-07T09:36:04.889Z,25.54
2022-08-07T09:38:25.446Z,25.71
2022-08-07T09:41:13.983Z,25.34
2022-08-07T09:44:58.364Z,25.57
2022-08-07T09:47:58.228Z,25.24
2022-08-07T09:50:45.176Z,25.25
2022-08-07T09:53:14.615Z,25.39
2022-08-07T09:56:13.538Z,25.51
2022-08-07T09:59:14.063Z,25.32
2022-08-07T10:02:19.978Z,25.84
2022-08-07T10:05:59.811Z,26.31
2022-08-07T10:08:32.792Z,25.69
2022-08-07T10:12:01.167Z,26.38
2022-08-07T10:14:38.707Z,26.72
2022-08-07T10:18:01.312Z,26.66
2022-08-07T10:20:39.180Z,26.88
2022-08-07T10:24:06.342Z,26.80
2022-08-07T10:26:52.954Z,26.89
2022-08-07T10:30:03.664Z,26.93
2022-08-07T10:33:01.911Z,27.22
2022-08-07T10:35:57.019Z,27.61
2022-08-07T10:38:41.369Z,27.75
2022-08-07T10:41:47.370Z,27.63
2022-08-07T10:44:45.253Z,27.74
2022-08-07T10:47:52.892Z,27.70
2022-08-07T10:50:26.448Z,27.95
2022-08-07T10:53:24.884Z,27.81
2022-08-07T10:56:30.918Z,27.96
2022-08-07T10:59:30.510Z,28.04
2022-08-07T11:02:33.389Z,27.86
2022-08-07T11:05:48.973Z,28.00
2022-08-07T11:08:32.011Z,28.04
2022-08-07T11:11:07.747Z,28.16
2022-08-07T11:14:45.146Z,28.30
2022-08-07T11:17:01.798Z,27.96
2022-08-07T11:19:46.726Z,28.24
2022-08-07T11:22:38.278Z,28.30
2022-08-07T11:25:23.257Z,27.87
2022-08-07T11:28:31.440Z,28.13
2022-08-07T11:31:34.910Z,28.38
2022-08-07T11:34:27.620Z,28.52
2022-08-07T11:37:04.962Z,28.38
2022-08-07T11:40:00.504Z,28.80
2022-08-07T11:42:32.629Z,28.74
2022-08-07T11:45:06.289Z,28.71
2022-08-07T11:47:59.642Z,28.78
2022-08-07T11:50:57.341Z,29.07
2022-08-07T11:54:00.893Z,28.91
2022-08-07T11:56:34.329Z,29.29
2022-08-07T12:00:11.297Z,29.00
2022-08-07T12:02:31.290Z,29.11
2022-08-07T12:05:03.878Z,29.61
2022-08-07T12:07:53.387Z,29.93
2022-08-07T12:11:08.419Z,29.45
2022-08-07T12:13:47.844Z,29.92
2022-08-07T12:16:42.680Z,29.77
2022-08-07T12:19:56.197Z,29.63
2022-08-07T12:22:47.361Z,29.48
2022-08-07T12:26:03.310Z,29.97
2022-08-07T12:28:49.598Z,29.62
2022-08-07T12:31:53.209Z,29.65
2022-08-07T12:34:17.747Z,29.90
2022-08-07T12:36:50.084Z,29.53
2022-08-07T12:39:42.144Z,29.59
2022-08-07T12:42:10.350Z,29.37
2022-08-07T12:44:45.038Z,29.81
2022-08-07T12:47:31.091Z,29.44
2022-08-07T12:50:33.760Z,29.43
2022-08-07T12:53:05.357Z,30.03
2022-08-07T12:56:02.890Z,30.37
2022-08-07T12:58:37.441Z,30.18
2022-08-07T13:01:06.300Z,30.24
2022-08-07T13:04:03.199Z,30.10
2022-08-07T13:07:00.789Z,29.44
2022-08-07T13:10:20.479Z,29.81
2022-08-07T13:12:56.359Z,29.88
2022-08-07T13:15:34.301Z,30.38
2022-08-07T13:18:26.276Z,30.46
2022-08-07T13:21:37.871Z,30.36
2022-08-07T13:24:20.627Z,30.35
2022-08-07T13:27:20.447Z,30.33
2022-08-07T13:30:03.606Z,30.46
2022-08-07T13:32:59.313Z,29.57
2022-08-07T13:36:00.867Z,30.03
2022-08-07T13:38:39.108Z,29.98
2022-08-07T13:41:35.466Z,29.67
2022-08-07T13:44:10.418Z,29.78
2022-08-07T13:46:49.323Z,29.95
2022-08-07T13:50:34.580Z,30.76
2022-08-07T13:52:30.501Z,30.61
2022-08-07T13:54:57.155Z,30.24
2022-08-07T13:57:27.349Z,29.82
2022-08-07T14:00:07.663Z,29.06
2022-08-07T14:02:49.147Z,29.33
2022-08-07T14:05:23.051Z,29.66
2022-08-07T14:07:59.636Z,29.56
2022-08-07T14:10:34.706Z,30.02
2022-08-07T14:13:14.098Z,30.14
2022-08-07T14:15:50.620Z,29.94
2022-08-07T14:18:28.569Z,29.53
2022-08-07T14:22:41.171Z,28.77
2022-08-07T14:24:02.025Z,29.05
2022-08-07T14:26:36.077Z,29.21
2022-08-07T14:30:02.812Z,29.55
2022-08-07T14:31:56.642Z,29.59
2022-08-07T14:34:30.063Z,29.18
2022-08-07T14:37:02.974Z,29.29
2022-08-07T14:40:17.436Z,29.37
2022-08-07T14:42:27.440Z,29.43
2022-08-07T14:45:20.858Z,29.88
2022-08-07T14:47:49.503Z,30.00
2022-08-07T14:50:20.478Z,30.15
2022-08-07T14:52:47.807Z,30.03
2022-08-07T14:55:17.536Z,30.05
2022-08-07T14:57:54.806Z,29.62
2022-08-07T15:00:30.894Z,29.23
2022-08-07T15:03:16.659Z,29.16
2022-08-07T15:05:54.991Z,29.37
2022-08-07T15:08:33.664Z,30.04
2022-08-07T15:11:06.232Z,29.67
2022-08-07T15:13:37.753Z,29.99
2022-08-07T15:16:11.090Z,29.74
2022-08-07T15:18:45.272Z,29.29
2022-08-07T15:21:43.951Z,29.22
2022-08-07T15:25:12.747Z,29.11
2022-08-07T15:27:34.080Z,28.90
2022-08-07T15:30:16.689Z,28.81
2022-08-07T15:32:50.815Z,28.88
2022-08-07T15:36:01.864Z,28.89
2022-08-07T15:38:31.110Z,29.28
2022-08-07T15:41:23.678Z,29.07
2022-08-07T15:44:04.705Z,28.80
2022-08-07T15:46:45.869Z,28.90
2022-08-07T15:49:18.503Z,28.94
2022-08-07T15:54:31.348Z,29.55
2022-08-07T15:57:03.500Z,29.19
2022-08-07T15:59:39.953Z,29.39
2022-08-07T16:02:22.665Z,28.97
2022-08-07T16:04:57.629Z,29.14
2022-08-07T16:08:30.478Z,29.51
2022-08-07T16:10:20.650Z,28.92
2022-08-07T16:13:17.327Z,28.73
2022-08-07T16:16:48.849Z,28.65
2022-08-07T16:19:17.923Z,29.22
2022-08-07T16:22:05.199Z,28.70
2022-08-07T16:24:56.749Z,28.45
2022-08-07T16:27:40.424Z,28.49
2022-08-07T16:30:30.684Z,28.61
2022-08-07T16:34:01.436Z,28.56
2022-08-07T16:36:20.576Z,28.39
2022-08-07T16:39:10.199Z,28.86
2022-08-07T16:42:28.879Z,28.62
2022-08-07T16:46:11.026Z,28.35
2022-08-07T16:48:34.592Z,28.15
2022-08-07T16:51:57.527Z,28.22
2022-08-07T16:54:55.509Z,28.17
2022-08-07T16:58:02.754Z,28.21
2022-08-07T17:00:31.051Z,28.16
2022-08-07T17:03:17.100Z,28.19
2022-08-07T17:06:41.150Z,27.96
2022-08-07T17:10:05.193Z,27.98
2022-08-07T17:12:33.601Z,27.98
2022-08-07T17:15:05.053Z,27.92
2022-08-07T17:17:45.973Z,27.81
2022-08-07T17:20:29.692Z,27.61
2022-08-07T17:23:21.122Z,27.36
2022-08-07T17:26:02.268Z,27.63
2022-08-07T17:28:38.288Z,27.51
2022-08-07T17:32:02.608Z,27.31
2022-08-07T17:35:32.958Z,27.27
2022-08-07T17:38:09.687Z,27.13
2022-08-07T17:40:50.735Z,27.25
2022-08-07T17:44:03.116Z,27.24
2022-08-07T17:46:35.823Z,26.88
2022-08-07T17:49:14.573Z,26.81
2022-08-07T17:52:00.631Z,26.80
2022-08-07T17:54:54.121Z,26.85
2022-08-07T17:57:59.069Z,26.76
2022-08-07T18:00:34.475Z,26.73
2022-08-07T18:03:25.659Z,26.73
2022-08-07T18:06:16.436Z,26.63
2022-08-07T18:09:05.826Z,26.55
2022-08-07T18:12:17.400Z,26.64
2022-08-07T18:14:49.726Z,26.63
2022-08-07T18:18:46.371Z,26.53
2022-08-07T18:21:09.766Z,26.57
2022-08-07T18:23:58.463Z,26.73
2022-08-07T18:26:42.724Z,26.71
2022-08-07T18:30:06.949Z,26.50
2022-08-07T18:32:28.347Z,26.41
2022-08-07T18:35:17.304Z,26.39
2022-08-07T18:38:56.013Z,26.43
2022-08-07T18:41:20.615Z,26.23
2022-08-07T18:44:15.170Z,26.01
2022-08-07T18:47:20.967Z,25.79
2022-08-07T18:50:38.584Z,25.70
2022-08-07T18:53:12.453Z,25.58
2022-08-07T18:55:57.360Z,25.45
2022-08-07T18:58:51.329Z,25.40
2022-08-07T19:02:18.591Z,25.35
2022-08-07T19:04:57.952Z,25.35
2022-08-07T19:07:52.029Z,25.24
2022-08-07T19:10:31.788Z,25.11
2022-08-07T19:13:43.823Z,24.95
2022-08-07T19:17:01.246Z,24.94
2022-08-07T19:19:36.127Z,24.83
2022-08-07T19:22:33.995Z,24.81
2022-08-07T19:25:05.801Z,24.63
2022-08-07T19:30:55.674Z,24.45
2022-08-07T19:31:01.411Z,24.41
2022-08-07T19:33:15.781Z,24.39
2022-08-07T19:35:46.114Z,24.39
2022-08-07T19:38:17.739Z,24.31
2022-08-07T19:40:50.571Z,24.22
2022-08-07T19:43:43.933Z,24.10
2022-08-07T19:46:22.310Z,23.99
2022-08-07T19:49:04.379Z,23.87
2022-08-07T19:51:53.506Z,23.89
2022-08-07T19:54:29.843Z,23.84
2022-08-07T19:57:51.611Z,23.70
2022-08-07T19:59:55.776Z,23.66
2022-08-07T20:02:33.358Z,23.67
2022-08-07T20:05:07.985Z,23.53
2022-08-07T20:07:47.306Z,23.53
2022-08-07T20:10:36.868Z,23.40
2022-08-07T20:13:22.917Z,23.34
2022-08-07T20:15:52.229Z,23.29
2022-08-07T20:18:21.966Z,23.13
2022-08-07T20:21:14.262Z,23.11
2022-08-07T20:23:57.901Z,23.06
2022-08-07T20:26:45.082Z,23.06
2022-08-07T20:29:46.799Z,23.05
2022-08-07T20:32:11.291Z,22.97
2022-08-07T20:34:51.922Z,22.83
2022-08-07T20:37:25.334Z,22.77
2022-08-07T20:40:02.159Z,22.73
2022-08-07T20:42:32.042Z,22.70
2022-08-07T20:45:01.134Z,22.68
2022-08-07T20:47:56.831Z,22.70
2022-08-07T20:50:20.170Z,22.58
2022-08-07T20:52:51.972Z,22.52
2022-08-07T20:55:23.942Z,22.45
2022-08-07T20:58:02.709Z,22.49
2022-08-07T21:00:44.554Z,22.39
2022-08-07T21:03:25.607Z,22.31
2022-08-07T21:06:21.468Z,22.21
2022-08-07T21:09:07.467Z,22.15
2022-08-07T21:11:51.009Z,22.06
2022-08-07T21:14:33.006Z,21.96
2022-08-07T21:18:00.706Z,21.87
2022-08-07T21:20:01.075Z,21.85
2022-08-07T21:22:34.402Z,21.80
2022-08-07T21:25:12.941Z,21.81
2022-08-07T21:28:02.025Z,21.78
2022-08-07T21:30:56.164Z,21.67
2022-08-07T21:33:38.282Z,21.60
2022-08-07T21:36:31.504Z,21.55
2022-08-07T21:39:46.323Z,21.31
2022-08-07T21:42:37.701Z,21.31
2022-08-07T21:46:04.906Z,21.23
2022-08-07T21:48:28.849Z,21.21
2022-08-07T21:51:25.425Z,21.14
2022-08-07T21:54:00.992Z,21.21
2022-08-07T21:56:59.900Z,21.09
2022-08-07T22:00:05.569Z,21.08
2022-08-07T22:03:06.429Z,21.02
2022-08-07T22:06:02.314Z,21.12
2022-08-07T22:08:39.008Z,21.02
2022-08-07T22:11:08.337Z,20.91
2022-08-07T22:13:50.389Z,20.95
2022-08-07T22:16:35.807Z,20.93
2022-08-07T22:19:23.700Z,20.87
2022-08-07T22:22:20.884Z,20.83
2022-08-07T22:25:08.245Z,20.82
2022-08-07T22:28:30.244Z,20.70
2022-08-07T22:31:56.281Z,20.58
2022-08-07T22:34:35.641Z,20.60
2022-08-07T22:37:02.333Z,20.58
2022-08-07T22:39:52.895Z,20.51
2022-08-07T22:42:25.850Z,20.61
2022-08-07T22:46:42.558Z,20.47
2022-08-07T22:48:54.527Z,20.30
2022-08-07T22:51:49.350Z,20.32
2022-08-07T22:54:48.901Z,20.33
2022-08-07T22:57:34.461Z,20.31
2022-08-07T23:00:28.656Z,20.30
2022-08-07T23:03:21.835Z,20.29
2022-08-07T23:06:29.610Z,20.31
2022-08-07T23:10:01.093Z,20.34
2022-08-07T23:12:44.386Z,20.34
2022-08-07T23:16:06.214Z,20.15
2022-08-07T23:18:42.482Z,20.02
2022-08-07T23:21:09.426Z,20.00
2022-08-07T23:24:16.743Z,19.97
2022-08-07T23:26:58.069Z,19.92
2022-08-07T23:30:39.356Z,19.83
2022-08-07T23:34:36.888Z,19.91
2022-08-07T23:36:06.928Z,19.87
2022-08-07T23:39:04.872Z,19.73
2022-08-07T23:42:04.140Z,19.81
2022-08-07T23:45:15.021Z,19.65
2022-08-07T23:48:20.933Z,19.70
2022-08-07T23:50:54.495Z,19.52
2022-08-07T23:53:49.353Z,19.35
2022-08-07T23:56:35.086Z,19.13
